sensor_id;sensor_type;location;lat;lon;timestamp;P1;durP1;ratioP1;P2;durP2;ratioP2
75340;SDS011;64931;47.562;18.920;2023-01-25T00:00:39;15.10;;;7.60;;
75340;SDS011;64931;47.562;18.920;2023-01-25T00:03:05;14.90;;;7.40;;
75340;SDS011;64931;47.562;18.920;2023-01-25T00:05:30;16.70;;;7.50;;
75340;SDS011;64931;47.562;18.920;2023-01-25T00:07:55;16.80;;;7.90;;
75340;SDS011;64931;47.562;18.920;2023-01-25T00:10:21;17.00;;;7.90;;
75340;SDS011;64931;47.562;18.920;2023-01-25T00:12:46;16.50;;;8.00;;
75340;SDS011;64931;47.562;18.920;2023-01-25T00:15:12;15.30;;;8.10;;
75340;SDS011;64931;47.562;18.920;2023-01-25T00:17:37;15.90;;;7.80;;
75340;SDS011;64931;47.562;18.920;2023-01-25T00:20:03;15.60;;;7.70;;
75340;SDS011;64931;47.562;18.920;2023-01-25T00:22:29;14.10;;;7.10;;
75340;SDS011;64931;47.562;18.920;2023-01-25T00:24:54;14.50;;;7.20;;
75340;SDS011;64931;47.562;18.920;2023-01-25T00:27:19;14.30;;;7.00;;
75340;SDS011;64931;47.562;18.920;2023-01-25T00:29:45;13.20;;;7.20;;
75340;SDS011;64931;47.562;18.920;2023-01-25T00:34:46;15.40;;;7.90;;
75340;SDS011;64931;47.562;18.920;2023-01-25T00:37:17;17.90;;;8.00;;
75340;SDS011;64931;47.562;18.920;2023-01-25T00:39:45;17.80;;;8.40;;
75340;SDS011;64931;47.562;18.920;2023-01-25T00:42:10;20.00;;;9.10;;
75340;SDS011;64931;47.562;18.920;2023-01-25T00:44:37;17.50;;;9.20;;
75340;SDS011;64931;47.562;18.920;2023-01-25T00:47:03;17.40;;;9.50;;
75340;SDS011;64931;47.562;18.920;2023-01-25T00:49:29;18.30;;;9.80;;
75340;SDS011;64931;47.562;18.920;2023-01-25T00:51:56;14.80;;;8.00;;
75340;SDS011;64931;47.562;18.920;2023-01-25T00:54:22;15.10;;;7.70;;
75340;SDS011;64931;47.562;18.920;2023-01-25T00:56:48;15.60;;;8.10;;
75340;SDS011;64931;47.562;18.920;2023-01-25T00:59:16;16.20;;;7.80;;
75340;SDS011;64931;47.562;18.920;2023-01-25T01:01:42;13.00;;;7.30;;
75340;SDS011;64931;47.562;18.920;2023-01-25T01:04:08;14.50;;;7.50;;
75340;SDS011;64931;47.562;18.920;2023-01-25T01:06:34;31.70;;;17.00;;
75340;SDS011;64931;47.562;18.920;2023-01-25T01:09:00;22.20;;;11.70;;
75340;SDS011;64931;47.562;18.920;2023-01-25T01:11:26;19.50;;;11.90;;
75340;SDS011;64931;47.562;18.920;2023-01-25T01:13:51;24.30;;;12.40;;
75340;SDS011;64931;47.562;18.920;2023-01-25T01:16:17;17.60;;;9.20;;
75340;SDS011;64931;47.562;18.920;2023-01-25T01:18:43;16.80;;;8.30;;
75340;SDS011;64931;47.562;18.920;2023-01-25T01:21:10;19.70;;;10.80;;
75340;SDS011;64931;47.562;18.920;2023-01-25T01:23:36;16.10;;;9.00;;
75340;SDS011;64931;47.562;18.920;2023-01-25T01:26:02;21.10;;;10.40;;
75340;SDS011;64931;47.562;18.920;2023-01-25T01:28:32;18.50;;;10.00;;
75340;SDS011;64931;47.562;18.920;2023-01-25T01:30:59;14.70;;;7.90;;
75340;SDS011;64931;47.562;18.920;2023-01-25T01:33:25;16.50;;;8.90;;
75340;SDS011;64931;47.562;18.920;2023-01-25T01:35:51;18.50;;;10.00;;
75340;SDS011;64931;47.562;18.920;2023-01-25T01:38:16;19.90;;;9.60;;
75340;SDS011;64931;47.562;18.920;2023-01-25T01:40:45;17.90;;;9.50;;
75340;SDS011;64931;47.562;18.920;2023-01-25T01:43:21;22.20;;;10.70;;
75340;SDS011;64931;47.562;18.920;2023-01-25T01:50:54;20.80;;;10.90;;
75340;SDS011;64931;47.562;18.920;2023-01-25T01:53:23;19.50;;;11.00;;
75340;SDS011;64931;47.562;18.920;2023-01-25T01:55:48;20.00;;;9.80;;
75340;SDS011;64931;47.562;18.920;2023-01-25T01:58:15;19.50;;;9.90;;
75340;SDS011;64931;47.562;18.920;2023-01-25T02:00:41;18.10;;;9.70;;
75340;SDS011;64931;47.562;18.920;2023-01-25T02:03:06;20.70;;;9.80;;
75340;SDS011;64931;47.562;18.920;2023-01-25T02:05:42;18.80;;;9.60;;
75340;SDS011;64931;47.562;18.920;2023-01-25T02:08:22;18.50;;;9.80;;
75340;SDS011;64931;47.562;18.920;2023-01-25T02:10:48;18.30;;;9.70;;
75340;SDS011;64931;47.562;18.920;2023-01-25T02:13:14;21.10;;;10.50;;
75340;SDS011;64931;47.562;18.920;2023-01-25T02:15:45;25.10;;;11.70;;
75340;SDS011;64931;47.562;18.920;2023-01-25T02:18:12;17.20;;;9.30;;
75340;SDS011;64931;47.562;18.920;2023-01-25T02:20:38;19.80;;;10.60;;
75340;SDS011;64931;47.562;18.920;2023-01-25T02:25:48;20.40;;;10.30;;
75340;SDS011;64931;47.562;18.920;2023-01-25T02:28:15;20.10;;;9.50;;
75340;SDS011;64931;47.562;18.920;2023-01-25T02:30:47;19.00;;;9.90;;
75340;SDS011;64931;47.562;18.920;2023-01-25T02:33:13;23.00;;;11.10;;
75340;SDS011;64931;47.562;18.920;2023-01-25T02:35:48;21.40;;;11.70;;
75340;SDS011;64931;47.562;18.920;2023-01-25T02:38:16;21.10;;;10.30;;
75340;SDS011;64931;47.562;18.920;2023-01-25T02:40:45;20.60;;;10.30;;
75340;SDS011;64931;47.562;18.920;2023-01-25T02:43:14;20.20;;;10.10;;
75340;SDS011;64931;47.562;18.920;2023-01-25T02:45:40;16.30;;;8.00;;
75340;SDS011;64931;47.562;18.920;2023-01-25T02:48:09;20.30;;;10.00;;
75340;SDS011;64931;47.562;18.920;2023-01-25T02:50:34;17.00;;;8.20;;
75340;SDS011;64931;47.562;18.920;2023-01-25T02:53:00;22.20;;;10.40;;
75340;SDS011;64931;47.562;18.920;2023-01-25T02:55:25;23.00;;;11.30;;
75340;SDS011;64931;47.562;18.920;2023-01-25T02:57:51;22.60;;;10.00;;
75340;SDS011;64931;47.562;18.920;2023-01-25T03:00:16;24.90;;;11.90;;
75340;SDS011;64931;47.562;18.920;2023-01-25T03:02:42;21.60;;;10.30;;
75340;SDS011;64931;47.562;18.920;2023-01-25T03:05:07;20.20;;;10.00;;
75340;SDS011;64931;47.562;18.920;2023-01-25T03:07:33;23.20;;;11.60;;
75340;SDS011;64931;47.562;18.920;2023-01-25T03:09:58;20.20;;;10.60;;
75340;SDS011;64931;47.562;18.920;2023-01-25T03:12:23;19.60;;;9.60;;
75340;SDS011;64931;47.562;18.920;2023-01-25T03:14:49;19.10;;;10.00;;
75340;SDS011;64931;47.562;18.920;2023-01-25T03:17:14;17.50;;;8.50;;
75340;SDS011;64931;47.562;18.920;2023-01-25T03:19:39;15.80;;;7.70;;
75340;SDS011;64931;47.562;18.920;2023-01-25T03:22:05;18.80;;;8.70;;
75340;SDS011;64931;47.562;18.920;2023-01-25T03:24:31;16.40;;;8.00;;
75340;SDS011;64931;47.562;18.920;2023-01-25T03:26:56;14.40;;;7.40;;
75340;SDS011;64931;47.562;18.920;2023-01-25T03:29:42;14.70;;;6.80;;
75340;SDS011;64931;47.562;18.920;2023-01-25T03:32:09;15.70;;;7.20;;
75340;SDS011;64931;47.562;18.920;2023-01-25T03:34:35;16.10;;;7.20;;
75340;SDS011;64931;47.562;18.920;2023-01-25T03:37:00;13.90;;;6.70;;
75340;SDS011;64931;47.562;18.920;2023-01-25T03:39:26;16.30;;;8.00;;
75340;SDS011;64931;47.562;18.920;2023-01-25T03:41:52;17.10;;;7.30;;
75340;SDS011;64931;47.562;18.920;2023-01-25T03:44:17;14.00;;;6.90;;
75340;SDS011;64931;47.562;18.920;2023-01-25T03:46:43;16.90;;;8.10;;
75340;SDS011;64931;47.562;18.920;2023-01-25T03:49:08;15.70;;;7.40;;
75340;SDS011;64931;47.562;18.920;2023-01-25T03:51:34;16.30;;;7.50;;
75340;SDS011;64931;47.562;18.920;2023-01-25T03:53:59;15.40;;;6.90;;
75340;SDS011;64931;47.562;18.920;2023-01-25T03:56:24;15.70;;;7.30;;
75340;SDS011;64931;47.562;18.920;2023-01-25T03:58:50;16.30;;;7.90;;
75340;SDS011;64931;47.562;18.920;2023-01-25T04:01:15;16.00;;;7.60;;
75340;SDS011;64931;47.562;18.920;2023-01-25T04:03:41;15.60;;;7.70;;
75340;SDS011;64931;47.562;18.920;2023-01-25T04:06:06;14.80;;;6.90;;
75340;SDS011;64931;47.562;18.920;2023-01-25T04:08:32;16.40;;;7.40;;
75340;SDS011;64931;47.562;18.920;2023-01-25T04:11:03;14.50;;;6.80;;
75340;SDS011;64931;47.562;18.920;2023-01-25T04:13:30;12.70;;;6.30;;
75340;SDS011;64931;47.562;18.920;2023-01-25T04:15:55;17.50;;;7.60;;
75340;SDS011;64931;47.562;18.920;2023-01-25T04:18:21;12.10;;;6.30;;
75340;SDS011;64931;47.562;18.920;2023-01-25T04:20:53;15.00;;;7.40;;
75340;SDS011;64931;47.562;18.920;2023-01-25T04:23:19;16.20;;;7.50;;
75340;SDS011;64931;47.562;18.920;2023-01-25T04:25:55;15.40;;;7.50;;
75340;SDS011;64931;47.562;18.920;2023-01-25T04:28:25;16.30;;;7.50;;
75340;SDS011;64931;47.562;18.920;2023-01-25T04:30:51;17.30;;;8.10;;
75340;SDS011;64931;47.562;18.920;2023-01-25T04:33:18;17.60;;;8.20;;
75340;SDS011;64931;47.562;18.920;2023-01-25T04:35:43;16.70;;;7.90;;
75340;SDS011;64931;47.562;18.920;2023-01-25T04:38:09;15.80;;;8.20;;
75340;SDS011;64931;47.562;18.920;2023-01-25T04:40:35;15.40;;;7.10;;
75340;SDS011;64931;47.562;18.920;2023-01-25T04:43:00;16.20;;;7.50;;
75340;SDS011;64931;47.562;18.920;2023-01-25T04:45:25;17.90;;;8.40;;
75340;SDS011;64931;47.562;18.920;2023-01-25T04:47:55;21.70;;;9.80;;
75340;SDS011;64931;47.562;18.920;2023-01-25T04:50:22;19.50;;;9.10;;
75340;SDS011;64931;47.562;18.920;2023-01-25T04:52:47;20.20;;;9.90;;
75340;SDS011;64931;47.562;18.920;2023-01-25T04:55:12;23.00;;;10.60;;
75340;SDS011;64931;47.562;18.920;2023-01-25T04:57:38;17.70;;;9.00;;
75340;SDS011;64931;47.562;18.920;2023-01-25T05:00:04;20.50;;;9.20;;
75340;SDS011;64931;47.562;18.920;2023-01-25T05:02:30;20.00;;;9.80;;
75340;SDS011;64931;47.562;18.920;2023-01-25T05:04:55;22.80;;;9.40;;
75340;SDS011;64931;47.562;18.920;2023-01-25T05:07:21;19.00;;;10.10;;
75340;SDS011;64931;47.562;18.920;2023-01-25T05:09:47;20.80;;;10.20;;
75340;SDS011;64931;47.562;18.920;2023-01-25T05:12:13;26.90;;;12.20;;
75340;SDS011;64931;47.562;18.920;2023-01-25T05:14:38;20.10;;;9.60;;
75340;SDS011;64931;47.562;18.920;2023-01-25T05:17:04;20.40;;;10.00;;
75340;SDS011;64931;47.562;18.920;2023-01-25T05:19:30;18.40;;;9.10;;
75340;SDS011;64931;47.562;18.920;2023-01-25T05:21:56;19.50;;;9.40;;
75340;SDS011;64931;47.562;18.920;2023-01-25T05:24:22;17.80;;;8.70;;
75340;SDS011;64931;47.562;18.920;2023-01-25T05:26:54;17.80;;;9.00;;
75340;SDS011;64931;47.562;18.920;2023-01-25T05:29:30;26.90;;;13.00;;
75340;SDS011;64931;47.562;18.920;2023-01-25T05:32:00;27.60;;;13.80;;
75340;SDS011;64931;47.562;18.920;2023-01-25T05:34:27;45.80;;;23.40;;
75340;SDS011;64931;47.562;18.920;2023-01-25T05:36:52;33.80;;;17.20;;
75340;SDS011;64931;47.562;18.920;2023-01-25T05:39:17;31.00;;;14.90;;
75340;SDS011;64931;47.562;18.920;2023-01-25T05:41:43;32.60;;;16.90;;
75340;SDS011;64931;47.562;18.920;2023-01-25T05:44:08;30.30;;;14.40;;
75340;SDS011;64931;47.562;18.920;2023-01-25T05:46:34;30.60;;;15.40;;
75340;SDS011;64931;47.562;18.920;2023-01-25T05:48:59;22.90;;;11.70;;
75340;SDS011;64931;47.562;18.920;2023-01-25T05:51:24;22.50;;;11.80;;
75340;SDS011;64931;47.562;18.920;2023-01-25T05:53:52;21.80;;;11.00;;
75340;SDS011;64931;47.562;18.920;2023-01-25T05:56:19;20.60;;;11.00;;
75340;SDS011;64931;47.562;18.920;2023-01-25T05:58:44;32.20;;;14.90;;
75340;SDS011;64931;47.562;18.920;2023-01-25T06:01:10;27.50;;;13.50;;
75340;SDS011;64931;47.562;18.920;2023-01-25T06:03:35;22.80;;;11.90;;
75340;SDS011;64931;47.562;18.920;2023-01-25T06:06:01;29.00;;;14.50;;
75340;SDS011;64931;47.562;18.920;2023-01-25T06:08:29;22.20;;;11.50;;
75340;SDS011;64931;47.562;18.920;2023-01-25T06:10:55;22.00;;;10.30;;
75340;SDS011;64931;47.562;18.920;2023-01-25T06:13:21;20.90;;;10.80;;
75340;SDS011;64931;47.562;18.920;2023-01-25T06:15:54;20.70;;;10.80;;
75340;SDS011;64931;47.562;18.920;2023-01-25T06:18:20;22.90;;;10.90;;
75340;SDS011;64931;47.562;18.920;2023-01-25T06:20:46;17.60;;;9.70;;
75340;SDS011;64931;47.562;18.920;2023-01-25T06:23:12;20.60;;;11.00;;
75340;SDS011;64931;47.562;18.920;2023-01-25T06:25:37;23.30;;;11.20;;
75340;SDS011;64931;47.562;18.920;2023-01-25T06:28:03;22.90;;;11.80;;
75340;SDS011;64931;47.562;18.920;2023-01-25T06:30:28;21.30;;;10.90;;
75340;SDS011;64931;47.562;18.920;2023-01-25T06:32:56;20.10;;;10.10;;
75340;SDS011;64931;47.562;18.920;2023-01-25T06:35:22;22.40;;;11.00;;
75340;SDS011;64931;47.562;18.920;2023-01-25T06:37:47;18.70;;;10.20;;
75340;SDS011;64931;47.562;18.920;2023-01-25T06:40:13;19.60;;;9.50;;
75340;SDS011;64931;47.562;18.920;2023-01-25T06:42:39;16.70;;;9.20;;
75340;SDS011;64931;47.562;18.920;2023-01-25T06:45:04;21.60;;;11.90;;
75340;SDS011;64931;47.562;18.920;2023-01-25T06:47:30;21.30;;;12.50;;
75340;SDS011;64931;47.562;18.920;2023-01-25T06:49:56;20.00;;;10.50;;
75340;SDS011;64931;47.562;18.920;2023-01-25T06:52:21;16.90;;;8.80;;
75340;SDS011;64931;47.562;18.920;2023-01-25T06:54:46;14.40;;;7.70;;
75340;SDS011;64931;47.562;18.920;2023-01-25T06:57:12;13.50;;;7.30;;
75340;SDS011;64931;47.562;18.920;2023-01-25T06:59:37;18.20;;;9.10;;
75340;SDS011;64931;47.562;18.920;2023-01-25T07:02:03;18.50;;;8.50;;
75340;SDS011;64931;47.562;18.920;2023-01-25T07:04:28;15.70;;;8.10;;
75340;SDS011;64931;47.562;18.920;2023-01-25T07:06:54;20.10;;;10.60;;
75340;SDS011;64931;47.562;18.920;2023-01-25T07:09:19;17.20;;;8.30;;
75340;SDS011;64931;47.562;18.920;2023-01-25T07:11:48;21.10;;;11.20;;
75340;SDS011;64931;47.562;18.920;2023-01-25T07:14:14;23.60;;;12.80;;
75340;SDS011;64931;47.562;18.920;2023-01-25T07:16:40;20.70;;;12.00;;
75340;SDS011;64931;47.562;18.920;2023-01-25T07:19:06;16.60;;;9.00;;
75340;SDS011;64931;47.562;18.920;2023-01-25T07:21:32;20.40;;;10.00;;
75340;SDS011;64931;47.562;18.920;2023-01-25T07:24:01;25.30;;;14.20;;
75340;SDS011;64931;47.562;18.920;2023-01-25T07:26:28;18.20;;;9.50;;
75340;SDS011;64931;47.562;18.920;2023-01-25T07:28:55;15.80;;;8.70;;
75340;SDS011;64931;47.562;18.920;2023-01-25T07:31:21;23.50;;;13.40;;
75340;SDS011;64931;47.562;18.920;2023-01-25T07:33:51;17.30;;;9.00;;
75340;SDS011;64931;47.562;18.920;2023-01-25T07:36:20;17.20;;;9.40;;
75340;SDS011;64931;47.562;18.920;2023-01-25T07:38:46;20.30;;;9.80;;
75340;SDS011;64931;47.562;18.920;2023-01-25T07:41:12;20.40;;;9.90;;
75340;SDS011;64931;47.562;18.920;2023-01-25T07:43:38;18.30;;;9.20;;
75340;SDS011;64931;47.562;18.920;2023-01-25T07:46:05;19.80;;;10.40;;
75340;SDS011;64931;47.562;18.920;2023-01-25T07:48:32;18.80;;;10.60;;
75340;SDS011;64931;47.562;18.920;2023-01-25T07:51:01;19.50;;;10.50;;
75340;SDS011;64931;47.562;18.920;2023-01-25T07:53:51;25.40;;;12.90;;
75340;SDS011;64931;47.562;18.920;2023-01-25T07:56:19;21.80;;;11.20;;
75340;SDS011;64931;47.562;18.920;2023-01-25T07:58:46;20.20;;;11.00;;
75340;SDS011;64931;47.562;18.920;2023-01-25T08:01:13;20.00;;;10.30;;
75340;SDS011;64931;47.562;18.920;2023-01-25T08:03:39;18.70;;;9.70;;
75340;SDS011;64931;47.562;18.920;2023-01-25T08:06:05;15.50;;;8.70;;
75340;SDS011;64931;47.562;18.920;2023-01-25T08:08:32;17.60;;;8.70;;
75340;SDS011;64931;47.562;18.920;2023-01-25T08:11:09;18.00;;;9.20;;
75340;SDS011;64931;47.562;18.920;2023-01-25T08:13:45;19.10;;;10.30;;
75340;SDS011;64931;47.562;18.920;2023-01-25T08:16:18;21.60;;;12.30;;
75340;SDS011;64931;47.562;18.920;2023-01-25T08:18:48;21.60;;;11.10;;
75340;SDS011;64931;47.562;18.920;2023-01-25T08:21:14;18.50;;;9.80;;
75340;SDS011;64931;47.562;18.920;2023-01-25T08:23:40;18.00;;;10.20;;
75340;SDS011;64931;47.562;18.920;2023-01-25T08:26:06;20.10;;;11.20;;
75340;SDS011;64931;47.562;18.920;2023-01-25T08:28:33;19.20;;;10.50;;
75340;SDS011;64931;47.562;18.920;2023-01-25T08:31:42;20.20;;;11.00;;
75340;SDS011;64931;47.562;18.920;2023-01-25T08:33:55;19.70;;;10.20;;
75340;SDS011;64931;47.562;18.920;2023-01-25T08:36:21;20.40;;;10.10;;
75340;SDS011;64931;47.562;18.920;2023-01-25T08:38:51;18.30;;;9.90;;
75340;SDS011;64931;47.562;18.920;2023-01-25T08:41:25;19.00;;;10.00;;
75340;SDS011;64931;47.562;18.920;2023-01-25T08:43:52;17.50;;;10.10;;
75340;SDS011;64931;47.562;18.920;2023-01-25T08:46:18;18.90;;;9.80;;
75340;SDS011;64931;47.562;18.920;2023-01-25T08:48:44;17.70;;;9.40;;
75340;SDS011;64931;47.562;18.920;2023-01-25T08:51:10;17.40;;;9.20;;
75340;SDS011;64931;47.562;18.920;2023-01-25T08:53:37;17.40;;;8.30;;
75340;SDS011;64931;47.562;18.920;2023-01-25T08:56:05;15.20;;;8.50;;
75340;SDS011;64931;47.562;18.920;2023-01-25T08:58:39;15.40;;;7.60;;
75340;SDS011;64931;47.562;18.920;2023-01-25T09:01:06;14.10;;;7.70;;
75340;SDS011;64931;47.562;18.920;2023-01-25T09:03:34;14.00;;;6.80;;
75340;SDS011;64931;47.562;18.920;2023-01-25T09:06:00;16.90;;;8.30;;
75340;SDS011;64931;47.562;18.920;2023-01-25T09:08:26;16.30;;;9.40;;
75340;SDS011;64931;47.562;18.920;2023-01-25T09:10:51;16.60;;;8.50;;
75340;SDS011;64931;47.562;18.920;2023-01-25T09:13:17;14.40;;;8.20;;
75340;SDS011;64931;47.562;18.920;2023-01-25T09:15:42;16.70;;;7.80;;
75340;SDS011;64931;47.562;18.920;2023-01-25T09:18:08;15.80;;;8.30;;
75340;SDS011;64931;47.562;18.920;2023-01-25T09:20:36;23.10;;;14.80;;
75340;SDS011;64931;47.562;18.920;2023-01-25T09:23:02;15.90;;;8.90;;
75340;SDS011;64931;47.562;18.920;2023-01-25T09:25:28;28.30;;;12.40;;
75340;SDS011;64931;47.562;18.920;2023-01-25T09:27:53;16.30;;;8.50;;
75340;SDS011;64931;47.562;18.920;2023-01-25T09:30:18;18.10;;;9.30;;
75340;SDS011;64931;47.562;18.920;2023-01-25T09:32:44;17.20;;;8.70;;
75340;SDS011;64931;47.562;18.920;2023-01-25T09:35:09;19.10;;;9.60;;
75340;SDS011;64931;47.562;18.920;2023-01-25T09:37:35;17.50;;;9.30;;
75340;SDS011;64931;47.562;18.920;2023-01-25T09:40:00;16.00;;;9.40;;
75340;SDS011;64931;47.562;18.920;2023-01-25T09:45:23;20.30;;;9.70;;
75340;SDS011;64931;47.562;18.920;2023-01-25T09:48:08;22.30;;;11.00;;
75340;SDS011;64931;47.562;18.920;2023-01-25T09:53:36;22.80;;;10.30;;
75340;SDS011;64931;47.562;18.920;2023-01-25T09:56:07;19.90;;;11.20;;
75340;SDS011;64931;47.562;18.920;2023-01-25T09:58:37;20.60;;;10.60;;
75340;SDS011;64931;47.562;18.920;2023-01-25T10:01:14;18.90;;;10.30;;
75340;SDS011;64931;47.562;18.920;2023-01-25T10:03:52;19.30;;;10.40;;
75340;SDS011;64931;47.562;18.920;2023-01-25T10:06:20;20.60;;;10.70;;
75340;SDS011;64931;47.562;18.920;2023-01-25T10:09:11;17.60;;;10.20;;
75340;SDS011;64931;47.562;18.920;2023-01-25T10:11:40;14.90;;;8.30;;
75340;SDS011;64931;47.562;18.920;2023-01-25T10:14:10;17.00;;;9.80;;
75340;SDS011;64931;47.562;18.920;2023-01-25T10:26:38;18.50;;;9.60;;
75340;SDS011;64931;47.562;18.920;2023-01-25T10:29:40;17.70;;;9.30;;
75340;SDS011;64931;47.562;18.920;2023-01-25T10:34:46;17.40;;;8.70;;
75340;SDS011;64931;47.562;18.920;2023-01-25T10:37:15;17.20;;;8.50;;
75340;SDS011;64931;47.562;18.920;2023-01-25T10:40:03;16.90;;;8.70;;
75340;SDS011;64931;47.562;18.920;2023-01-25T10:42:47;16.30;;;9.50;;
75340;SDS011;64931;47.562;18.920;2023-01-25T10:45:16;17.10;;;8.90;;
75340;SDS011;64931;47.562;18.920;2023-01-25T10:47:43;18.60;;;9.40;;
75340;SDS011;64931;47.562;18.920;2023-01-25T10:50:40;17.70;;;9.40;;
75340;SDS011;64931;47.562;18.920;2023-01-25T10:53:03;17.20;;;8.70;;
75340;SDS011;64931;47.562;18.920;2023-01-25T10:55:28;17.30;;;9.70;;
75340;SDS011;64931;47.562;18.920;2023-01-25T10:57:54;17.40;;;9.90;;
75340;SDS011;64931;47.562;18.920;2023-01-25T11:00:39;18.20;;;9.50;;
75340;SDS011;64931;47.562;18.920;2023-01-25T11:03:05;20.50;;;9.30;;
75340;SDS011;64931;47.562;18.920;2023-01-25T11:05:44;16.50;;;9.00;;
75340;SDS011;64931;47.562;18.920;2023-01-25T11:10:55;19.20;;;11.00;;
75340;SDS011;64931;47.562;18.920;2023-01-25T11:13:23;15.40;;;8.40;;
75340;SDS011;64931;47.562;18.920;2023-01-25T11:20:45;14.70;;;7.30;;
75340;SDS011;64931;47.562;18.920;2023-01-25T11:23:21;15.80;;;8.10;;
75340;SDS011;64931;47.562;18.920;2023-01-25T11:25:49;14.50;;;8.20;;
75340;SDS011;64931;47.562;18.920;2023-01-25T11:28:22;16.80;;;9.10;;
75340;SDS011;64931;47.562;18.920;2023-01-25T11:30:51;15.60;;;7.90;;
75340;SDS011;64931;47.562;18.920;2023-01-25T11:33:18;16.90;;;8.30;;
75340;SDS011;64931;47.562;18.920;2023-01-25T11:38:18;18.50;;;9.70;;
75340;SDS011;64931;47.562;18.920;2023-01-25T11:46:24;16.20;;;8.60;;
75340;SDS011;64931;47.562;18.920;2023-01-25T11:54:51;17.20;;;9.00;;
75340;SDS011;64931;47.562;18.920;2023-01-25T12:00:34;16.60;;;8.50;;
75340;SDS011;64931;47.562;18.920;2023-01-25T12:09:15;17.40;;;9.40;;
75340;SDS011;64931;47.562;18.920;2023-01-25T12:17:19;17.40;;;9.40;;
75340;SDS011;64931;47.562;18.920;2023-01-25T12:25:12;16.00;;;7.70;;
75340;SDS011;64931;47.562;18.920;2023-01-25T12:32:58;17.40;;;9.30;;
75340;SDS011;64931;47.562;18.920;2023-01-25T12:35:54;18.60;;;9.60;;
75340;SDS011;64931;47.562;18.920;2023-01-25T12:46:50;20.10;;;10.20;;
75340;SDS011;64931;47.562;18.920;2023-01-25T12:49:22;20.40;;;11.40;;
75340;SDS011;64931;47.562;18.920;2023-01-25T12:51:52;19.20;;;11.30;;
75340;SDS011;64931;47.562;18.920;2023-01-25T12:54:22;19.50;;;10.50;;
75340;SDS011;64931;47.562;18.920;2023-01-25T12:56:54;19.80;;;9.80;;
75340;SDS011;64931;47.562;18.920;2023-01-25T13:02:33;21.50;;;12.40;;
75340;SDS011;64931;47.562;18.920;2023-01-25T13:07:47;23.40;;;12.20;;
75340;SDS011;64931;47.562;18.920;2023-01-25T13:10:36;24.70;;;14.40;;
75340;SDS011;64931;47.562;18.920;2023-01-25T13:13:23;19.80;;;11.30;;
75340;SDS011;64931;47.562;18.920;2023-01-25T13:15:50;21.20;;;12.10;;
75340;SDS011;64931;47.562;18.920;2023-01-25T13:20:49;23.00;;;11.80;;
75340;SDS011;64931;47.562;18.920;2023-01-25T13:23:33;21.00;;;12.40;;
75340;SDS011;64931;47.562;18.920;2023-01-25T13:28:45;24.30;;;12.10;;
75340;SDS011;64931;47.562;18.920;2023-01-25T13:36:43;23.30;;;12.50;;
75340;SDS011;64931;47.562;18.920;2023-01-25T13:42:15;24.20;;;12.90;;
75340;SDS011;64931;47.562;18.920;2023-01-25T13:44:43;27.40;;;14.30;;
75340;SDS011;64931;47.562;18.920;2023-01-25T13:47:11;21.80;;;12.20;;
75340;SDS011;64931;47.562;18.920;2023-01-25T13:49:43;22.90;;;11.80;;
75340;SDS011;64931;47.562;18.920;2023-01-25T13:52:17;25.00;;;13.90;;
75340;SDS011;64931;47.562;18.920;2023-01-25T13:54:44;24.40;;;12.30;;
75340;SDS011;64931;47.562;18.920;2023-01-25T13:57:12;25.20;;;15.70;;
75340;SDS011;64931;47.562;18.920;2023-01-25T13:59:38;23.40;;;13.90;;
75340;SDS011;64931;47.562;18.920;2023-01-25T14:02:20;24.60;;;13.90;;
75340;SDS011;64931;47.562;18.920;2023-01-25T14:04:48;22.80;;;12.70;;
75340;SDS011;64931;47.562;18.920;2023-01-25T14:07:18;23.40;;;12.60;;
75340;SDS011;64931;47.562;18.920;2023-01-25T14:09:45;24.60;;;13.60;;
75340;SDS011;64931;47.562;18.920;2023-01-25T14:12:29;23.90;;;12.60;;
75340;SDS011;64931;47.562;18.920;2023-01-25T14:14:55;22.00;;;11.80;;
75340;SDS011;64931;47.562;18.920;2023-01-25T14:17:22;24.40;;;12.70;;
75340;SDS011;64931;47.562;18.920;2023-01-25T14:19:57;21.90;;;12.10;;
75340;SDS011;64931;47.562;18.920;2023-01-25T14:22:26;25.70;;;13.30;;
75340;SDS011;64931;47.562;18.920;2023-01-25T14:30:25;24.70;;;13.20;;
75340;SDS011;64931;47.562;18.920;2023-01-25T14:32:53;30.90;;;19.50;;
75340;SDS011;64931;47.562;18.920;2023-01-25T14:37:59;26.00;;;13.70;;
75340;SDS011;64931;47.562;18.920;2023-01-25T14:40:25;25.00;;;14.80;;
75340;SDS011;64931;47.562;18.920;2023-01-25T14:42:53;24.90;;;14.10;;
75340;SDS011;64931;47.562;18.920;2023-01-25T14:45:19;25.00;;;14.00;;
75340;SDS011;64931;47.562;18.920;2023-01-25T14:47:48;24.90;;;13.70;;
75340;SDS011;64931;47.562;18.920;2023-01-25T14:55:31;24.70;;;12.80;;
75340;SDS011;64931;47.562;18.920;2023-01-25T14:57:58;22.80;;;12.40;;
75340;SDS011;64931;47.562;18.920;2023-01-25T15:00:25;25.20;;;13.10;;
75340;SDS011;64931;47.562;18.920;2023-01-25T15:02:59;22.20;;;12.10;;
75340;SDS011;64931;47.562;18.920;2023-01-25T15:05:27;22.20;;;11.10;;
75340;SDS011;64931;47.562;18.920;2023-01-25T15:10:32;20.20;;;11.20;;
75340;SDS011;64931;47.562;18.920;2023-01-25T15:15:36;23.70;;;12.00;;
75340;SDS011;64931;47.562;18.920;2023-01-25T15:18:02;22.20;;;12.20;;
75340;SDS011;64931;47.562;18.920;2023-01-25T15:20:28;23.60;;;13.20;;
75340;SDS011;64931;47.562;18.920;2023-01-25T15:23:04;25.60;;;13.90;;
75340;SDS011;64931;47.562;18.920;2023-01-25T15:25:47;24.10;;;12.30;;
75340;SDS011;64931;47.562;18.920;2023-01-25T15:28:21;26.50;;;13.90;;
75340;SDS011;64931;47.562;18.920;2023-01-25T15:30:47;23.70;;;13.60;;
75340;SDS011;64931;47.562;18.920;2023-01-25T15:33:17;23.70;;;12.80;;
75340;SDS011;64931;47.562;18.920;2023-01-25T15:35:47;26.20;;;13.30;;
75340;SDS011;64931;47.562;18.920;2023-01-25T15:38:13;25.40;;;13.00;;
75340;SDS011;64931;47.562;18.920;2023-01-25T15:40:39;25.20;;;13.60;;
75340;SDS011;64931;47.562;18.920;2023-01-25T15:43:08;24.00;;;13.20;;
75340;SDS011;64931;47.562;18.920;2023-01-25T15:45:34;23.60;;;12.30;;
75340;SDS011;64931;47.562;18.920;2023-01-25T15:48:00;24.90;;;12.30;;
75340;SDS011;64931;47.562;18.920;2023-01-25T15:50:25;26.50;;;14.50;;
75340;SDS011;64931;47.562;18.920;2023-01-25T15:52:50;23.40;;;13.90;;
75340;SDS011;64931;47.562;18.920;2023-01-25T15:55:19;26.50;;;13.00;;
75340;SDS011;64931;47.562;18.920;2023-01-25T15:57:47;23.50;;;12.90;;
75340;SDS011;64931;47.562;18.920;2023-01-25T16:00:17;23.80;;;12.90;;
75340;SDS011;64931;47.562;18.920;2023-01-25T16:02:44;27.60;;;13.60;;
75340;SDS011;64931;47.562;18.920;2023-01-25T16:05:10;24.10;;;12.40;;
75340;SDS011;64931;47.562;18.920;2023-01-25T16:07:36;27.90;;;14.90;;
75340;SDS011;64931;47.562;18.920;2023-01-25T16:10:02;34.00;;;17.20;;
75340;SDS011;64931;47.562;18.920;2023-01-25T16:12:28;28.80;;;16.20;;
75340;SDS011;64931;47.562;18.920;2023-01-25T16:14:58;29.60;;;15.50;;
75340;SDS011;64931;47.562;18.920;2023-01-25T16:17:24;33.20;;;20.00;;
75340;SDS011;64931;47.562;18.920;2023-01-25T16:19:51;34.20;;;18.90;;
75340;SDS011;64931;47.562;18.920;2023-01-25T16:22:16;29.50;;;16.50;;
75340;SDS011;64931;47.562;18.920;2023-01-25T16:24:44;25.60;;;15.10;;